sensor_id;sensor_type;location;lat;lon;timestamp;P1;durP1;ratioP1;P2;durP2;ratioP2
55053;SDS011;40954;45.668;18.980;2022-08-14T00:01:57;8.45;;;6.80;;
55053;SDS011;40954;45.668;18.980;2022-08-14T00:04:24;11.77;;;10.52;;
55053;SDS011;40954;45.668;18.980;2022-08-14T00:06:50;10.88;;;9.80;;
55053;SDS011;40954;45.668;18.980;2022-08-14T00:09:16;8.25;;;7.05;;
55053;SDS011;40954;45.668;18.980;2022-08-14T00:11:42;6.85;;;5.93;;
55053;SDS011;40954;45.668;18.980;2022-08-14T00:14:08;8.32;;;7.47;;
55053;SDS011;40954;45.668;18.980;2022-08-14T00:16:34;6.70;;;6.10;;
55053;SDS011;40954;45.668;18.980;2022-08-14T00:19:01;7.18;;;6.45;;
55053;SDS011;40954;45.668;18.980;2022-08-14T00:21:27;7.10;;;6.22;;
55053;SDS011;40954;45.668;18.980;2022-08-14T00:23:53;7.00;;;6.40;;
55053;SDS011;40954;45.668;18.980;2022-08-14T00:26:21;7.57;;;6.95;;
55053;SDS011;40954;45.668;18.980;2022-08-14T00:28:48;7.18;;;6.03;;
55053;SDS011;40954;45.668;18.980;2022-08-14T00:31:14;7.70;;;5.80;;
55053;SDS011;40954;45.668;18.980;2022-08-14T00:33:40;7.00;;;6.30;;
55053;SDS011;40954;45.668;18.980;2022-08-14T00:36:06;10.68;;;5.82;;
55053;SDS011;40954;45.668;18.980;2022-08-14T00:38:34;6.47;;;5.88;;
55053;SDS011;40954;45.668;18.980;2022-08-14T00:41:00;7.10;;;6.40;;
55053;SDS011;40954;45.668;18.980;2022-08-14T00:43:26;6.63;;;6.03;;
55053;SDS011;40954;45.668;18.980;2022-08-14T00:45:53;5.50;;;5.00;;
55053;SDS011;40954;45.668;18.980;2022-08-14T00:48:19;7.35;;;6.00;;
55053;SDS011;40954;45.668;18.980;2022-08-14T00:50:45;8.25;;;7.22;;
55053;SDS011;40954;45.668;18.980;2022-08-14T00:53:11;8.50;;;7.10;;
55053;SDS011;40954;45.668;18.980;2022-08-14T00:55:40;8.63;;;7.65;;
55053;SDS011;40954;45.668;18.980;2022-08-14T00:58:07;8.40;;;7.47;;
55053;SDS011;40954;45.668;18.980;2022-08-14T01:00:52;9.80;;;7.07;;
55053;SDS011;40954;45.668;18.980;2022-08-14T01:03:18;8.70;;;6.78;;
55053;SDS011;40954;45.668;18.980;2022-08-14T01:05:45;7.82;;;6.88;;
55053;SDS011;40954;45.668;18.980;2022-08-14T01:08:15;8.82;;;7.93;;
55053;SDS011;40954;45.668;18.980;2022-08-14T01:10:43;7.95;;;7.20;;
55053;SDS011;40954;45.668;18.980;2022-08-14T01:13:17;8.02;;;7.22;;
55053;SDS011;40954;45.668;18.980;2022-08-14T01:15:45;8.18;;;7.40;;
55053;SDS011;40954;45.668;18.980;2022-08-14T01:18:12;8.13;;;7.00;;
55053;SDS011;40954;45.668;18.980;2022-08-14T01:20:57;8.75;;;7.85;;
55053;SDS011;40954;45.668;18.980;2022-08-14T01:23:31;10.45;;;8.30;;
55053;SDS011;40954;45.668;18.980;2022-08-14T01:25:57;9.70;;;8.75;;
55053;SDS011;40954;45.668;18.980;2022-08-14T01:28:24;8.65;;;7.72;;
55053;SDS011;40954;45.668;18.980;2022-08-14T01:30:55;11.25;;;8.65;;
55053;SDS011;40954;45.668;18.980;2022-08-14T01:33:25;8.40;;;7.70;;
55053;SDS011;40954;45.668;18.980;2022-08-14T01:35:55;8.10;;;7.40;;
55053;SDS011;40954;45.668;18.980;2022-08-14T01:38:27;7.30;;;6.30;;
55053;SDS011;40954;45.668;18.980;2022-08-14T01:43:24;8.07;;;7.45;;
55053;SDS011;40954;45.668;18.980;2022-08-14T01:45:55;8.40;;;7.50;;
55053;SDS011;40954;45.668;18.980;2022-08-14T01:48:22;7.78;;;7.07;;
55053;SDS011;40954;45.668;18.980;2022-08-14T01:50:48;8.65;;;7.72;;
55053;SDS011;40954;45.668;18.980;2022-08-14T01:53:15;8.02;;;7.32;;
55053;SDS011;40954;45.668;18.980;2022-08-14T01:55:41;8.70;;;7.80;;
55053;SDS011;40954;45.668;18.980;2022-08-14T01:58:08;8.50;;;7.63;;
55053;SDS011;40954;45.668;18.980;2022-08-14T02:00:40;8.80;;;8.05;;
55053;SDS011;40954;45.668;18.980;2022-08-14T02:03:06;9.00;;;7.95;;
55053;SDS011;40954;45.668;18.980;2022-08-14T02:05:33;8.70;;;8.00;;
55053;SDS011;40954;45.668;18.980;2022-08-14T02:07:59;11.73;;;8.48;;
55053;SDS011;40954;45.668;18.980;2022-08-14T02:10:25;9.63;;;8.48;;
55053;SDS011;40954;45.668;18.980;2022-08-14T02:12:53;7.93;;;7.22;;
55053;SDS011;40954;45.668;18.980;2022-08-14T02:15:21;8.80;;;8.02;;
55053;SDS011;40954;45.668;18.980;2022-08-14T02:17:47;8.32;;;7.53;;
55053;SDS011;40954;45.668;18.980;2022-08-14T02:20:14;9.07;;;8.10;;
55053;SDS011;40954;45.668;18.980;2022-08-14T02:22:43;10.75;;;8.05;;
55053;SDS011;40954;45.668;18.980;2022-08-14T02:25:09;9.23;;;8.32;;
55053;SDS011;40954;45.668;18.980;2022-08-14T02:27:35;10.15;;;8.27;;
55053;SDS011;40954;45.668;18.980;2022-08-14T02:30:02;10.02;;;9.13;;
55053;SDS011;40954;45.668;18.980;2022-08-14T02:32:29;9.40;;;8.65;;
55053;SDS011;40954;45.668;18.980;2022-08-14T02:34:55;9.48;;;8.57;;
55053;SDS011;40954;45.668;18.980;2022-08-14T02:37:21;9.63;;;8.63;;
55053;SDS011;40954;45.668;18.980;2022-08-14T02:39:47;9.48;;;8.35;;
55053;SDS011;40954;45.668;18.980;2022-08-14T02:42:16;10.70;;;8.52;;
55053;SDS011;40954;45.668;18.980;2022-08-14T02:44:45;8.75;;;8.02;;
55053;SDS011;40954;45.668;18.980;2022-08-14T02:47:11;9.00;;;8.13;;
55053;SDS011;40954;45.668;18.980;2022-08-14T02:49:37;8.20;;;6.55;;
55053;SDS011;40954;45.668;18.980;2022-08-14T02:52:04;8.75;;;7.72;;
55053;SDS011;40954;45.668;18.980;2022-08-14T02:54:32;8.80;;;7.68;;
55053;SDS011;40954;45.668;18.980;2022-08-14T02:56:58;9.05;;;8.18;;
55053;SDS011;40954;45.668;18.980;2022-08-14T02:59:25;10.70;;;9.60;;
55053;SDS011;40954;45.668;18.980;2022-08-14T03:01:55;10.48;;;9.57;;
55053;SDS011;40954;45.668;18.980;2022-08-14T03:04:21;11.73;;;10.43;;
55053;SDS011;40954;45.668;18.980;2022-08-14T03:06:49;12.20;;;10.88;;
55053;SDS011;40954;45.668;18.980;2022-08-14T03:09:15;12.68;;;11.43;;
55053;SDS011;40954;45.668;18.980;2022-08-14T03:11:41;10.55;;;8.73;;
55053;SDS011;40954;45.668;18.980;2022-08-14T03:14:08;9.32;;;8.38;;
55053;SDS011;40954;45.668;18.980;2022-08-14T03:16:36;13.45;;;9.32;;
55053;SDS011;40954;45.668;18.980;2022-08-14T03:19:03;10.65;;;9.63;;
55053;SDS011;40954;45.668;18.980;2022-08-14T03:21:31;10.10;;;8.10;;
55053;SDS011;40954;45.668;18.980;2022-08-14T03:23:57;9.82;;;8.93;;
55053;SDS011;40954;45.668;18.980;2022-08-14T03:26:33;14.10;;;8.57;;
55053;SDS011;40954;45.668;18.980;2022-08-14T03:28:59;10.20;;;8.40;;
55053;SDS011;40954;45.668;18.980;2022-08-14T03:31:26;9.65;;;8.63;;
55053;SDS011;40954;45.668;18.980;2022-08-14T03:33:52;11.45;;;8.88;;
55053;SDS011;40954;45.668;18.980;2022-08-14T03:36:19;9.02;;;7.30;;
55053;SDS011;40954;45.668;18.980;2022-08-14T03:38:48;10.18;;;8.48;;
55053;SDS011;40954;45.668;18.980;2022-08-14T03:41:15;9.68;;;8.70;;
55053;SDS011;40954;45.668;18.980;2022-08-14T03:43:46;11.90;;;7.28;;
55053;SDS011;40954;45.668;18.980;2022-08-14T03:46:12;10.65;;;8.65;;
55053;SDS011;40954;45.668;18.980;2022-08-14T03:48:39;7.60;;;6.90;;
55053;SDS011;40954;45.668;18.980;2022-08-14T03:51:06;9.85;;;7.53;;
55053;SDS011;40954;45.668;18.980;2022-08-14T03:53:36;7.20;;;6.53;;
55053;SDS011;40954;45.668;18.980;2022-08-14T03:56:06;11.95;;;7.65;;
55053;SDS011;40954;45.668;18.980;2022-08-14T03:58:32;7.55;;;6.82;;
55053;SDS011;40954;45.668;18.980;2022-08-14T04:00:59;9.57;;;5.78;;
55053;SDS011;40954;45.668;18.980;2022-08-14T04:03:26;6.97;;;6.35;;
55053;SDS011;40954;45.668;18.980;2022-08-14T04:05:52;9.18;;;7.75;;
55053;SDS011;40954;45.668;18.980;2022-08-14T04:08:19;7.15;;;6.45;;
55053;SDS011;40954;45.668;18.980;2022-08-14T04:10:46;6.88;;;6.22;;
55053;SDS011;40954;45.668;18.980;2022-08-14T04:13:12;7.40;;;6.53;;
55053;SDS011;40954;45.668;18.980;2022-08-14T04:15:45;7.95;;;7.00;;
55053;SDS011;40954;45.668;18.980;2022-08-14T04:18:11;8.77;;;7.88;;
55053;SDS011;40954;45.668;18.980;2022-08-14T04:20:38;8.45;;;7.35;;
55053;SDS011;40954;45.668;18.980;2022-08-14T04:23:04;8.45;;;7.55;;
55053;SDS011;40954;45.668;18.980;2022-08-14T04:25:31;9.10;;;8.30;;
55053;SDS011;40954;45.668;18.980;2022-08-14T04:27:58;6.18;;;5.68;;
55053;SDS011;40954;45.668;18.980;2022-08-14T04:30:25;9.77;;;8.23;;
55053;SDS011;40954;45.668;18.980;2022-08-14T04:32:53;9.30;;;8.15;;
55053;SDS011;40954;45.668;18.980;2022-08-14T04:35:19;10.82;;;9.00;;
55053;SDS011;40954;45.668;18.980;2022-08-14T04:37:45;9.52;;;8.30;;
55053;SDS011;40954;45.668;18.980;2022-08-14T04:40:30;9.98;;;9.07;;
55053;SDS011;40954;45.668;18.980;2022-08-14T04:43:15;8.40;;;7.60;;
55053;SDS011;40954;45.668;18.980;2022-08-14T04:45:59;8.75;;;7.95;;
55053;SDS011;40954;45.668;18.980;2022-08-14T04:48:26;9.85;;;7.80;;
55053;SDS011;40954;45.668;18.980;2022-08-14T04:50:53;8.25;;;7.43;;
55053;SDS011;40954;45.668;18.980;2022-08-14T04:53:21;12.80;;;7.85;;
55053;SDS011;40954;45.668;18.980;2022-08-14T04:55:48;8.48;;;7.60;;
55053;SDS011;40954;45.668;18.980;2022-08-14T04:58:18;11.00;;;7.72;;
55053;SDS011;40954;45.668;18.980;2022-08-14T05:00:45;8.50;;;6.80;;
55053;SDS011;40954;45.668;18.980;2022-08-14T05:03:15;7.20;;;6.50;;
55053;SDS011;40954;45.668;18.980;2022-08-14T05:05:41;7.30;;;6.70;;
55053;SDS011;40954;45.668;18.980;2022-08-14T05:08:08;10.77;;;6.65;;
55053;SDS011;40954;45.668;18.980;2022-08-14T05:10:40;8.95;;;7.10;;
55053;SDS011;40954;45.668;18.980;2022-08-14T05:13:06;6.90;;;6.20;;
55053;SDS011;40954;45.668;18.980;2022-08-14T05:15:33;10.63;;;6.32;;
55053;SDS011;40954;45.668;18.980;2022-08-14T05:18:06;8.98;;;7.28;;
55053;SDS011;40954;45.668;18.980;2022-08-14T05:20:35;7.70;;;6.55;;
55053;SDS011;40954;45.668;18.980;2022-08-14T05:23:01;7.60;;;6.90;;
55053;SDS011;40954;45.668;18.980;2022-08-14T05:25:27;9.95;;;5.78;;
55053;SDS011;40954;45.668;18.980;2022-08-14T05:27:53;8.32;;;7.53;;
55053;SDS011;40954;45.668;18.980;2022-08-14T05:30:24;9.90;;;6.60;;
55053;SDS011;40954;45.668;18.980;2022-08-14T05:32:50;7.25;;;6.53;;
55053;SDS011;40954;45.668;18.980;2022-08-14T05:35:17;8.70;;;6.30;;
55053;SDS011;40954;45.668;18.980;2022-08-14T05:37:43;7.47;;;6.78;;
55053;SDS011;40954;45.668;18.980;2022-08-14T05:40:09;7.38;;;6.10;;
55053;SDS011;40954;45.668;18.980;2022-08-14T05:42:35;7.63;;;6.38;;
55053;SDS011;40954;45.668;18.980;2022-08-14T05:45:03;6.35;;;5.63;;
55053;SDS011;40954;45.668;18.980;2022-08-14T05:47:29;7.30;;;5.50;;
55053;SDS011;40954;45.668;18.980;2022-08-14T05:49:56;7.72;;;6.63;;
55053;SDS011;40954;45.668;18.980;2022-08-14T05:52:22;8.68;;;7.55;;
55053;SDS011;40954;45.668;18.980;2022-08-14T05:54:48;5.28;;;4.88;;
55053;SDS011;40954;45.668;18.980;2022-08-14T05:57:14;5.97;;;5.47;;
55053;SDS011;40954;45.668;18.980;2022-08-14T05:59:40;5.43;;;5.03;;
55053;SDS011;40954;45.668;18.980;2022-08-14T06:02:07;7.68;;;6.20;;
55053;SDS011;40954;45.668;18.980;2022-08-14T06:04:33;6.50;;;5.97;;
55053;SDS011;40954;45.668;18.980;2022-08-14T06:06:59;10.02;;;6.80;;
55053;SDS011;40954;45.668;18.980;2022-08-14T06:09:25;8.38;;;6.43;;
55053;SDS011;40954;45.668;18.980;2022-08-14T06:11:51;6.57;;;6.03;;
55053;SDS011;40954;45.668;18.980;2022-08-14T06:14:17;7.85;;;7.10;;
55053;SDS011;40954;45.668;18.980;2022-08-14T06:16:44;7.90;;;6.88;;
55053;SDS011;40954;45.668;18.980;2022-08-14T06:19:11;8.93;;;7.45;;
55053;SDS011;40954;45.668;18.980;2022-08-14T06:21:38;7.25;;;6.53;;
55053;SDS011;40954;45.668;18.980;2022-08-14T06:24:04;10.77;;;6.35;;
55053;SDS011;40954;45.668;18.980;2022-08-14T06:26:30;7.28;;;6.57;;
55053;SDS011;40954;45.668;18.980;2022-08-14T06:28:56;7.65;;;6.72;;
55053;SDS011;40954;45.668;18.980;2022-08-14T06:31:23;8.20;;;7.40;;
55053;SDS011;40954;45.668;18.980;2022-08-14T06:33:49;8.65;;;6.65;;
55053;SDS011;40954;45.668;18.980;2022-08-14T06:36:16;8.85;;;7.00;;
55053;SDS011;40954;45.668;18.980;2022-08-14T06:38:43;9.40;;;7.10;;
55053;SDS011;40954;45.668;18.980;2022-08-14T06:41:09;7.70;;;7.00;;
55053;SDS011;40954;45.668;18.980;2022-08-14T06:43:35;7.60;;;6.70;;
55053;SDS011;40954;45.668;18.980;2022-08-14T06:46:01;7.53;;;6.82;;
55053;SDS011;40954;45.668;18.980;2022-08-14T06:48:28;8.82;;;7.88;;
55053;SDS011;40954;45.668;18.980;2022-08-14T06:50:55;8.27;;;6.88;;
55053;SDS011;40954;45.668;18.980;2022-08-14T06:53:21;7.63;;;6.93;;
55053;SDS011;40954;45.668;18.980;2022-08-14T06:55:47;7.85;;;7.15;;
55053;SDS011;40954;45.668;18.980;2022-08-14T06:58:15;9.02;;;7.93;;
55053;SDS011;40954;45.668;18.980;2022-08-14T07:00:41;9.00;;;8.07;;
55053;SDS011;40954;45.668;18.980;2022-08-14T07:03:27;8.05;;;7.35;;
55053;SDS011;40954;45.668;18.980;2022-08-14T07:06:12;8.70;;;7.10;;
55053;SDS011;40954;45.668;18.980;2022-08-14T07:08:38;9.27;;;8.32;;
55053;SDS011;40954;45.668;18.980;2022-08-14T07:11:06;9.82;;;7.60;;
55053;SDS011;40954;45.668;18.980;2022-08-14T07:13:32;8.73;;;7.93;;
55053;SDS011;40954;45.668;18.980;2022-08-14T07:15:58;7.88;;;7.10;;
55053;SDS011;40954;45.668;18.980;2022-08-14T07:18:25;9.32;;;7.38;;
55053;SDS011;40954;45.668;18.980;2022-08-14T07:20:52;8.93;;;7.47;;
55053;SDS011;40954;45.668;18.980;2022-08-14T07:23:18;7.90;;;7.20;;
55053;SDS011;40954;45.668;18.980;2022-08-14T07:25:47;7.82;;;7.05;;
55053;SDS011;40954;45.668;18.980;2022-08-14T07:28:24;9.40;;;8.10;;
55053;SDS011;40954;45.668;18.980;2022-08-14T07:30:51;7.18;;;6.47;;
55053;SDS011;40954;45.668;18.980;2022-08-14T07:33:21;8.85;;;7.18;;
55053;SDS011;40954;45.668;18.980;2022-08-14T07:35:48;7.47;;;6.78;;
55053;SDS011;40954;45.668;18.980;2022-08-14T07:38:17;8.35;;;7.55;;
55053;SDS011;40954;45.668;18.980;2022-08-14T07:40:44;8.02;;;7.22;;
55053;SDS011;40954;45.668;18.980;2022-08-14T07:43:11;7.25;;;6.65;;
55053;SDS011;40954;45.668;18.980;2022-08-14T07:45:37;10.00;;;7.07;;
55053;SDS011;40954;45.668;18.980;2022-08-14T07:48:04;8.07;;;6.65;;
55053;SDS011;40954;45.668;18.980;2022-08-14T07:50:30;9.13;;;6.75;;
55053;SDS011;40954;45.668;18.980;2022-08-14T07:52:57;7.93;;;7.00;;
55053;SDS011;40954;45.668;18.980;2022-08-14T07:55:24;10.00;;;6.40;;
55053;SDS011;40954;45.668;18.980;2022-08-14T07:57:50;9.02;;;7.18;;
55053;SDS011;40954;45.668;18.980;2022-08-14T08:00:17;8.70;;;7.68;;
55053;SDS011;40954;45.668;18.980;2022-08-14T08:02:45;12.57;;;9.25;;
55053;SDS011;40954;45.668;18.980;2022-08-14T08:05:11;9.13;;;8.30;;
55053;SDS011;40954;45.668;18.980;2022-08-14T08:07:38;10.35;;;8.55;;
55053;SDS011;40954;45.668;18.980;2022-08-14T08:10:09;8.82;;;7.95;;
55053;SDS011;40954;45.668;18.980;2022-08-14T08:12:54;11.18;;;9.00;;
55053;SDS011;40954;45.668;18.980;2022-08-14T08:15:21;9.70;;;7.65;;
55053;SDS011;40954;45.668;18.980;2022-08-14T08:17:48;8.75;;;7.13;;
55053;SDS011;40954;45.668;18.980;2022-08-14T08:20:16;9.95;;;7.15;;
55053;SDS011;40954;45.668;18.980;2022-08-14T08:22:43;9.65;;;7.80;;
55053;SDS011;40954;45.668;18.980;2022-08-14T08:25:09;8.63;;;7.82;;
55053;SDS011;40954;45.668;18.980;2022-08-14T08:27:36;9.88;;;8.80;;
55053;SDS011;40954;45.668;18.980;2022-08-14T08:30:06;11.48;;;9.80;;
55053;SDS011;40954;45.668;18.980;2022-08-14T08:32:39;14.23;;;9.85;;
55053;SDS011;40954;45.668;18.980;2022-08-14T08:35:08;10.23;;;8.63;;
55053;SDS011;40954;45.668;18.980;2022-08-14T08:37:34;11.25;;;8.73;;
55053;SDS011;40954;45.668;18.980;2022-08-14T08:40:01;9.50;;;8.63;;
55053;SDS011;40954;45.668;18.980;2022-08-14T08:42:27;13.13;;;8.60;;
55053;SDS011;40954;45.668;18.980;2022-08-14T08:44:53;9.60;;;8.57;;
55053;SDS011;40954;45.668;18.980;2022-08-14T08:47:20;8.50;;;7.65;;
55053;SDS011;40954;45.668;18.980;2022-08-14T08:49:46;10.55;;;8.18;;
55053;SDS011;40954;45.668;18.980;2022-08-14T08:52:12;9.20;;;8.30;;
55053;SDS011;40954;45.668;18.980;2022-08-14T08:54:38;9.07;;;8.15;;
55053;SDS011;40954;45.668;18.980;2022-08-14T08:57:11;10.27;;;7.32;;
55053;SDS011;40954;45.668;18.980;2022-08-14T08:59:37;8.30;;;7.50;;
55053;SDS011;40954;45.668;18.980;2022-08-14T09:02:04;8.75;;;7.95;;
55053;SDS011;40954;45.668;18.980;2022-08-14T09:04:35;8.77;;;7.40;;
55053;SDS011;40954;45.668;18.980;2022-08-14T09:07:05;8.63;;;7.70;;
55053;SDS011;40954;45.668;18.980;2022-08-14T09:09:32;8.13;;;7.35;;
55053;SDS011;40954;45.668;18.980;2022-08-14T09:11:59;8.95;;;7.47;;
55053;SDS011;40954;45.668;18.980;2022-08-14T09:14:26;8.15;;;7.35;;
55053;SDS011;40954;45.668;18.980;2022-08-14T09:16:53;9.43;;;7.13;;
55053;SDS011;40954;45.668;18.980;2022-08-14T09:19:20;9.05;;;8.15;;
55053;SDS011;40954;45.668;18.980;2022-08-14T09:21:46;8.48;;;7.55;;
55053;SDS011;40954;45.668;18.980;2022-08-14T09:24:13;7.97;;;6.93;;
55053;SDS011;40954;45.668;18.980;2022-08-14T09:26:40;8.52;;;7.55;;
55053;SDS011;40954;45.668;18.980;2022-08-14T09:29:07;8.50;;;7.72;;
55053;SDS011;40954;45.668;18.980;2022-08-14T09:31:34;8.80;;;6.90;;
55053;SDS011;40954;45.668;18.980;2022-08-14T09:41:49;7.95;;;6.85;;
55053;SDS011;40954;45.668;18.980;2022-08-14T09:45:08;8.75;;;7.32;;
55053;SDS011;40954;45.668;18.980;2022-08-14T09:47:05;8.20;;;7.50;;
55053;SDS011;40954;45.668;18.980;2022-08-14T09:49:34;7.93;;;7.32;;
55053;SDS011;40954;45.668;18.980;2022-08-14T09:52:11;9.10;;;7.82;;
55053;SDS011;40954;45.668;18.980;2022-08-14T09:54:41;12.15;;;7.72;;
55053;SDS011;40954;45.668;18.980;2022-08-14T09:57:07;12.15;;;8.02;;
55053;SDS011;40954;45.668;18.980;2022-08-14T09:59:41;8.25;;;7.55;;
55053;SDS011;40954;45.668;18.980;2022-08-14T10:02:17;8.80;;;7.70;;
55053;SDS011;40954;45.668;18.980;2022-08-14T10:04:45;8.43;;;7.72;;
55053;SDS011;40954;45.668;18.980;2022-08-14T10:07:12;9.23;;;8.35;;
55053;SDS011;40954;45.668;18.980;2022-08-14T10:09:45;10.90;;;8.40;;
55053;SDS011;40954;45.668;18.980;2022-08-14T10:12:12;8.93;;;8.02;;
55053;SDS011;40954;45.668;18.980;2022-08-14T10:14:38;10.52;;;8.45;;
55053;SDS011;40954;45.668;18.980;2022-08-14T10:17:05;8.38;;;7.63;;
55053;SDS011;40954;45.668;18.980;2022-08-14T10:19:32;8.32;;;7.47;;
55053;SDS011;40954;45.668;18.980;2022-08-14T10:22:06;8.25;;;7.45;;
55053;SDS011;40954;45.668;18.980;2022-08-14T10:24:41;8.90;;;8.00;;
55053;SDS011;40954;45.668;18.980;2022-08-14T10:29:42;7.97;;;7.38;;
55053;SDS011;40954;45.668;18.980;2022-08-14T10:32:09;9.63;;;7.82;;
55053;SDS011;40954;45.668;18.980;2022-08-14T10:34:38;8.73;;;7.88;;
55053;SDS011;40954;45.668;18.980;2022-08-14T10:37:06;10.63;;;9.30;;
55053;SDS011;40954;45.668;18.980;2022-08-14T10:39:33;9.95;;;8.73;;
55053;SDS011;40954;45.668;18.980;2022-08-14T10:42:09;9.32;;;8.40;;
55053;SDS011;40954;45.668;18.980;2022-08-14T10:44:40;10.30;;;8.23;;
55053;SDS011;40954;45.668;18.980;2022-08-14T10:47:10;9.35;;;8.45;;
55053;SDS011;40954;45.668;18.980;2022-08-14T10:49:37;9.30;;;8.50;;
55053;SDS011;40954;45.668;18.980;2022-08-14T10:52:20;11.43;;;8.68;;
55053;SDS011;40954;45.668;18.980;2022-08-14T10:54:47;8.75;;;7.88;;
55053;SDS011;40954;45.668;18.980;2022-08-14T10:59:44;8.30;;;7.30;;
55053;SDS011;40954;45.668;18.980;2022-08-14T11:02:19;9.98;;;7.97;;
55053;SDS011;40954;45.668;18.980;2022-08-14T11:07:31;9.20;;;8.40;;
55053;SDS011;40954;45.668;18.980;2022-08-14T11:09:58;8.18;;;7.20;;
55053;SDS011;40954;45.668;18.980;2022-08-14T11:12:25;9.45;;;8.15;;
55053;SDS011;40954;45.668;18.980;2022-08-14T11:14:52;8.07;;;7.28;;
55053;SDS011;40954;45.668;18.980;2022-08-14T11:17:19;9.93;;;8.68;;
55053;SDS011;40954;45.668;18.980;2022-08-14T11:19:45;6.97;;;6.38;;
55053;SDS011;40954;45.668;18.980;2022-08-14T11:22:12;8.68;;;7.78;;
55053;SDS011;40954;45.668;18.980;2022-08-14T11:24:39;8.52;;;7.70;;
55053;SDS011;40954;45.668;18.980;2022-08-14T11:27:07;11.65;;;7.63;;
55053;SDS011;40954;45.668;18.980;2022-08-14T11:29:35;9.45;;;8.65;;
55053;SDS011;40954;45.668;18.980;2022-08-14T11:32:03;9.13;;;7.13;;
55053;SDS011;40954;45.668;18.980;2022-08-14T11:34:30;8.40;;;7.60;;
55053;SDS011;40954;45.668;18.980;2022-08-14T11:37:06;9.73;;;8.57;;
55053;SDS011;40954;45.668;18.980;2022-08-14T11:39:32;8.20;;;7.50;;
55053;SDS011;40954;45.668;18.980;2022-08-14T11:41:58;9.18;;;8.00;;
55053;SDS011;40954;45.668;18.980;2022-08-14T11:44:24;11.60;;;10.55;;
55053;SDS011;40954;45.668;18.980;2022-08-14T11:46:50;10.65;;;9.65;;
55053;SDS011;40954;45.668;18.980;2022-08-14T11:49:24;7.82;;;7.10;;
55053;SDS011;40954;45.668;18.980;2022-08-14T11:51:51;9.05;;;7.75;;
55053;SDS011;40954;45.668;18.980;2022-08-14T11:54:18;8.32;;;7.03;;
55053;SDS011;40954;45.668;18.980;2022-08-14T11:56:44;7.00;;;6.38;;
55053;SDS011;40954;45.668;18.980;2022-08-14T11:59:17;8.07;;;7.28;;
55053;SDS011;40954;45.668;18.980;2022-08-14T12:01:43;10.57;;;9.63;;
55053;SDS011;40954;45.668;18.980;2022-08-14T12:04:11;8.50;;;7.82;;
55053;SDS011;40954;45.668;18.980;2022-08-14T12:06:47;9.00;;;8.20;;
55053;SDS011;40954;45.668;18.980;2022-08-14T12:09:26;8.60;;;7.90;;
55053;SDS011;40954;45.668;18.980;2022-08-14T12:11:52;8.43;;;7.75;;
55053;SDS011;40954;45.668;18.980;2022-08-14T12:14:20;11.05;;;7.88;;
55053;SDS011;40954;45.668;18.980;2022-08-14T12:16:56;12.80;;;9.07;;
55053;SDS011;40954;45.668;18.980;2022-08-14T12:19:23;8.05;;;7.07;;
55053;SDS011;40954;45.668;18.980;2022-08-14T12:21:49;7.32;;;6.68;;
55053;SDS011;40954;45.668;18.980;2022-08-14T12:24:15;6.97;;;6.35;;
55053;SDS011;40954;45.668;18.980;2022-08-14T12:26:42;6.93;;;6.22;;
55053;SDS011;40954;45.668;18.980;2022-08-14T12:29:18;7.22;;;6.50;;
55053;SDS011;40954;45.668;18.980;2022-08-14T12:31:44;7.70;;;6.95;;
55053;SDS011;40954;45.668;18.980;2022-08-14T12:34:11;7.28;;;6.70;;
55053;SDS011;40954;45.668;18.980;2022-08-14T12:36:38;6.38;;;5.88;;
55053;SDS011;40954;45.668;18.980;2022-08-14T12:39:16;7.55;;;6.85;;
55053;SDS011;40954;45.668;18.980;2022-08-14T12:41:48;9.63;;;7.32;;
55053;SDS011;40954;45.668;18.980;2022-08-14T12:44:30;7.78;;;7.03;;
55053;SDS011;40954;45.668;18.980;2022-08-14T12:49:29;7.57;;;6.88;;
55053;SDS011;40954;45.668;18.980;2022-08-14T12:51:59;9.30;;;8.52;;
55053;SDS011;40954;45.668;18.980;2022-08-14T12:54:26;7.07;;;6.47;;
55053;SDS011;40954;45.668;18.980;2022-08-14T12:57:06;7.40;;;6.68;;
55053;SDS011;40954;45.668;18.980;2022-08-14T12:59:33;10.15;;;6.32;;
55053;SDS011;40954;45.668;18.980;2022-08-14T13:02:00;7.88;;;6.85;;
55053;SDS011;40954;45.668;18.980;2022-08-14T13:04:26;9.32;;;7.57;;
55053;SDS011;40954;45.668;18.980;2022-08-14T13:07:04;6.82;;;6.22;;
55053;SDS011;40954;45.668;18.980;2022-08-14T13:09:33;7.47;;;6.90;;
55053;SDS011;40954;45.668;18.980;2022-08-14T13:12:00;7.53;;;6.93;;
55053;SDS011;40954;45.668;18.980;2022-08-14T13:14:27;8.07;;;6.15;;
55053;SDS011;40954;45.668;18.980;2022-08-14T13:16:55;8.50;;;7.78;;
55053;SDS011;40954;45.668;18.980;2022-08-14T13:19:22;8.02;;;7.32;;
55053;SDS011;40954;45.668;18.980;2022-08-14T13:21:49;8.93;;;7.20;;
55053;SDS011;40954;45.668;18.980;2022-08-14T13:24:17;8.15;;;7.35;;
55053;SDS011;40954;45.668;18.980;2022-08-14T13:26:44;7.00;;;6.30;;
55053;SDS011;40954;45.668;18.980;2022-08-14T13:29:12;9.10;;;7.85;;
55053;SDS011;40954;45.668;18.980;2022-08-14T13:31:42;8.45;;;6.72;;
55053;SDS011;40954;45.668;18.980;2022-08-14T13:34:11;9.25;;;7.07;;
55053;SDS011;40954;45.668;18.980;2022-08-14T13:36:38;7.15;;;6.45;;
55053;SDS011;40954;45.668;18.980;2022-08-14T13:39:05;7.63;;;6.65;;
55053;SDS011;40954;45.668;18.980;2022-08-14T13:41:31;8.23;;;7.43;;
55053;SDS011;40954;45.668;18.980;2022-08-14T13:43:58;7.28;;;6.50;;
55053;SDS011;40954;45.668;18.980;2022-08-14T13:46:24;7.20;;;6.43;;
55053;SDS011;40954;45.668;18.980;2022-08-14T13:48:50;7.63;;;6.90;;
55053;SDS011;40954;45.668;18.980;2022-08-14T13:51:17;7.70;;;7.00;;
55053;SDS011;40954;45.668;18.980;2022-08-14T13:53:44;8.23;;;7.43;;
55053;SDS011;40954;45.668;18.980;2022-08-14T13:56:11;7.47;;;6.57;;
55053;SDS011;40954;45.668;18.980;2022-08-14T13:58:37;8.70;;;7.05;;
55053;SDS011;40954;45.668;18.980;2022-08-14T14:01:03;8.55;;;7.28;;
55053;SDS011;40954;45.668;18.980;2022-08-14T14:03:32;6.90;;;6.30;;
55053;SDS011;40954;45.668;18.980;2022-08-14T14:05:59;7.20;;;6.50;;
55053;SDS011;40954;45.668;18.980;2022-08-14T14:08:26;7.22;;;6.60;;
55053;SDS011;40954;45.668;18.980;2022-08-14T14:10:53;7.45;;;6.75;;
55053;SDS011;40954;45.668;18.980;2022-08-14T14:13:20;7.50;;;6.80;;
55053;SDS011;40954;45.668;18.980;2022-08-14T14:15:48;7.05;;;6.45;;
55053;SDS011;40954;45.668;18.980;2022-08-14T14:18:14;6.95;;;6.38;;
55053;SDS011;40954;45.668;18.980;2022-08-14T14:20:43;8.60;;;7.43;;
55053;SDS011;40954;45.668;18.980;2022-08-14T14:23:12;7.82;;;7.03;;
55053;SDS011;40954;45.668;18.980;2022-08-14T14:25:39;8.00;;;6.43;;
55053;SDS011;40954;45.668;18.980;2022-08-14T14:28:06;7.75;;;6.72;;
55053;SDS011;40954;45.668;18.980;2022-08-14T14:30:32;7.60;;;7.00;;
55053;SDS011;40954;45.668;18.980;2022-08-14T14:32:58;7.72;;;7.03;;
55053;SDS011;40954;45.668;18.980;2022-08-14T14:35:25;7.70;;;6.78;;
55053;SDS011;40954;45.668;18.980;2022-08-14T14:37:53;7.35;;;6.75;;
55053;SDS011;40954;45.668;18.980;2022-08-14T14:40:19;7.45;;;6.78;;
55053;SDS011;40954;45.668;18.980;2022-08-14T14:42:50;8.52;;;6.65;;
55053;SDS011;40954;45.668;18.980;2022-08-14T14:45:19;7.43;;;6.80;;
55053;SDS011;40954;45.668;18.980;2022-08-14T14:50:13;7.93;;;6.45;;
55053;SDS011;40954;45.668;18.980;2022-08-14T14:52:40;8.15;;;7.32;;
55053;SDS011;40954;45.668;18.980;2022-08-14T14:55:07;7.43;;;6.70;;
55053;SDS011;40954;45.668;18.980;2022-08-14T14:57:33;7.38;;;6.70;;
55053;SDS011;40954;45.668;18.980;2022-08-14T15:00:00;7.38;;;6.68;;
55053;SDS011;40954;45.668;18.980;2022-08-14T15:04:55;8.00;;;7.20;;